Terminal Aerodrome Forecast
Issued by NWS

Current Version | Previous Version | Text Only | Print | Product List | Glossary On
Versions: 1 2 3 4 5 6 7 8 9 10 11 12 13 14 15
000
FTUS46 KMTR 061100
TAFMRY
TAF
KMRY 061120Z 0612/0712 24008KT P6SM OVC019
     FM062000 26013G18KT P6SM FEW020 SCT200
     FM070200 25006KT P6SM OVC018=

USA.gov is the U.S. government's official web portal to all federal, state and local government web resources and services.